TimeEDT,TemperatureF,Dew PointF,Humidity,Sea Level PressureIn,VisibilityMPH,Wind Direction,Wind SpeedMPH,Gust SpeedMPH,PrecipitationIn,Events,Conditions,WindDirDegrees,DateUTC
12:53 AM,44.1,37.0,76,30.31,10.0,Calm,Calm,-,N/A,,Clear,0,2013-03-29 04:53:00
1:53 AM,41.0,36.0,82,30.31,10.0,Calm,Calm,-,N/A,,Clear,0,2013-03-29 05:53:00
2:53 AM,39.0,35.1,86,30.30,10.0,Calm,Calm,-,N/A,,Clear,0,2013-03-29 06:53:00
3:53 AM,37.9,35.1,89,30.29,10.0,Calm,Calm,-,N/A,,Clear,0,2013-03-29 07:53:00
4:53 AM,37.0,35.1,93,30.29,10.0,Calm,Calm,-,N/A,,Clear,0,2013-03-29 08:53:00
5:53 AM,37.9,34.0,86,30.30,10.0,Calm,Calm,-,N/A,,Clear,0,2013-03-29 09:53:00
6:53 AM,36.0,33.1,89,30.31,10.0,Calm,Calm,-,N/A,,Clear,0,2013-03-29 10:53:00
7:53 AM,37.0,35.1,93,30.33,10.0,Calm,Calm,-,N/A,,Clear,0,2013-03-29 11:53:00
8:53 AM,50.0,43.0,77,30.34,10.0,Calm,Calm,-,N/A,,Clear,0,2013-03-29 12:53:00
9:53 AM,60.1,37.9,44,30.35,10.0,North,4.6,-,N/A,,Clear,10,2013-03-29 13:53:00
10:53 AM,64.9,34.0,32,30.36,10.0,NNE,4.6,-,N/A,,Clear,30,2013-03-29 14:53:00
11:53 AM,66.9,30.9,26,30.35,10.0,Variable,3.5,-,N/A,,Clear,0,2013-03-29 15:53:00
12:53 PM,71.1,30.9,23,30.32,10.0,WNW,8.1,-,N/A,,Clear,300,2013-03-29 16:53:00
1:53 PM,72.0,30.9,22,30.30,10.0,North,6.9,-,N/A,,Clear,10,2013-03-29 17:53:00
2:53 PM,72.0,32.0,23,30.27,10.0,Variable,3.5,-,N/A,,Clear,0,2013-03-29 18:53:00
3:53 PM,73.9,33.1,22,30.24,10.0,Variable,4.6,-,N/A,,Clear,0,2013-03-29 19:53:00
4:53 PM,73.0,30.9,21,30.22,10.0,North,4.6,-,N/A,,Clear,10,2013-03-29 20:53:00
5:53 PM,73.0,32.0,22,30.21,10.0,Calm,Calm,-,N/A,,Clear,0,2013-03-29 21:53:00
6:53 PM,72.0,32.0,23,30.22,10.0,Calm,Calm,-,N/A,,Clear,0,2013-03-29 22:53:00
7:53 PM,62.1,37.0,39,30.22,10.0,ENE,3.5,-,N/A,,Clear,70,2013-03-29 23:53:00
8:53 PM,63.0,39.0,41,30.25,10.0,West,9.2,16.1,N/A,,Clear,260,2013-03-30 00:53:00
9:53 PM,57.9,39.9,51,30.25,10.0,WNW,5.8,-,N/A,,Clear,290,2013-03-30 01:53:00
10:53 PM,57.0,39.9,53,30.27,10.0,Calm,Calm,-,N/A,,Clear,0,2013-03-30 02:53:00
11:53 PM,48.0,41.0,77,30.28,10.0,Calm,Calm,-,N/A,,Clear,0,2013-03-30 03:53:00